createdAt,value
2018-11-25T00:00:34.737Z,135.20
2018-11-25T00:03:04.354Z,110.00
2018-11-25T00:05:33.972Z,109.60
2018-11-25T00:08:03.673Z,104.93
2018-11-25T00:10:33.363Z,112.70
2018-11-25T00:13:03.172Z,112.33
2018-11-25T00:15:32.873Z,102.50
2018-11-25T00:18:02.477Z,106.27
2018-11-25T00:20:32.092Z,118.60
2018-11-25T00:23:01.791Z,118.00
2018-11-25T00:25:31.397Z,110.73
2018-11-25T00:28:01.084Z,123.77
2018-11-25T00:30:30.773Z,100.00
2018-11-25T00:33:00.360Z,109.30
2018-11-25T00:35:30.056Z,114.53
2018-11-25T00:37:59.760Z,106.30
2018-11-25T00:40:29.385Z,113.30
2018-11-25T00:42:58.976Z,122.03
2018-11-25T00:45:28.566Z,113.23
2018-11-25T00:47:58.257Z,120.00
2018-11-25T00:50:27.875Z,116.93
2018-11-25T00:52:57.455Z,115.07
2018-11-25T00:55:27.141Z,110.27
2018-11-25T00:57:56.841Z,105.50
2018-11-25T01:00:26.702Z,122.97
2018-11-25T01:02:56.324Z,117.70
2018-11-25T01:05:25.984Z,126.43
2018-11-25T01:07:55.592Z,119.17
2018-11-25T01:10:25.297Z,118.83
2018-11-25T01:12:54.920Z,118.23
2018-11-25T01:15:24.624Z,115.00
2018-11-25T01:17:54.232Z,117.00
2018-11-25T01:20:23.872Z,122.03
2018-11-25T01:22:53.501Z,121.37
2018-11-25T01:25:23.186Z,111.77
2018-11-25T01:27:52.932Z,121.33
2018-11-25T01:30:22.532Z,105.00
2018-11-25T01:32:52.152Z,105.50
2018-11-25T01:35:21.828Z,106.97
2018-11-25T01:37:51.496Z,116.13
2018-11-25T01:40:21.100Z,109.20
2018-11-25T01:42:50.723Z,109.30
2018-11-25T01:45:20.362Z,113.77
2018-11-25T01:47:49.985Z,109.57
2018-11-25T01:50:19.645Z,114.87
2018-11-25T01:52:49.613Z,119.97
2018-11-25T01:55:19.979Z,115.60
2018-11-25T01:57:49.629Z,104.30
2018-11-25T02:00:20.835Z,116.00
2018-11-25T02:02:50.808Z,121.40
2018-11-25T02:05:20.455Z,111.40
2018-11-25T02:07:50.244Z,120.73
2018-11-25T02:10:20.288Z,118.80
2018-11-25T02:12:49.923Z,120.77
2018-11-25T02:15:19.737Z,113.63
2018-11-25T02:17:49.342Z,124.10
2018-11-25T02:20:24.211Z,108.43
2018-11-25T02:22:55.668Z,116.77
2018-11-25T02:25:25.503Z,126.10
2018-11-25T02:27:55.139Z,112.03
2018-11-25T02:30:24.771Z,111.57
2018-11-25T02:32:54.618Z,103.83
2018-11-25T02:35:24.225Z,123.13
2018-11-25T02:37:53.983Z,103.53
2018-11-25T02:40:24.036Z,101.50
2018-11-25T02:42:53.660Z,107.60
2018-11-25T02:45:23.300Z,99.27
2018-11-25T02:47:52.918Z,102.70
2018-11-25T02:50:28.293Z,93.10
2018-11-25T02:53:00.837Z,104.20
2018-11-25T02:55:30.606Z,96.13
2018-11-25T02:58:00.869Z,92.47
2018-11-25T03:00:29.587Z,94.23
2018-11-25T03:02:58.969Z,83.27
2018-11-25T03:05:28.378Z,85.97
2018-11-25T03:07:57.798Z,96.03
2018-11-25T03:10:27.257Z,87.67
2018-11-25T03:12:56.657Z,94.33
2018-11-25T03:15:26.206Z,103.70
2018-11-25T03:17:55.609Z,87.33
2018-11-25T03:20:25.008Z,82.03
2018-11-25T03:22:55.403Z,87.27
2018-11-25T03:25:24.794Z,93.87
2018-11-25T03:27:54.434Z,83.13
2018-11-25T03:30:24.049Z,84.30
2018-11-25T03:32:54.477Z,95.73
2018-11-25T03:35:23.950Z,88.07
2018-11-25T03:37:53.533Z,85.77
2018-11-25T03:40:22.951Z,77.13
2018-11-25T03:42:52.399Z,90.57
2018-11-25T03:45:22.632Z,87.87
2018-11-25T03:47:52.031Z,95.33
2018-11-25T03:50:21.421Z,87.70
2018-11-25T03:52:50.942Z,92.93
2018-11-25T03:55:20.360Z,89.47
2018-11-25T03:57:49.859Z,87.53
2018-11-25T04:00:23.592Z,80.67
2018-11-25T04:02:55.041Z,95.80
2018-11-25T04:05:24.485Z,85.40
2018-11-25T04:07:53.884Z,76.83
2018-11-25T04:10:30.139Z,81.57
2018-11-25T04:12:59.556Z,82.47
2018-11-25T04:15:29.000Z,79.00
2018-11-25T04:17:58.426Z,83.90
2018-11-25T04:20:27.816Z,86.17
2018-11-25T04:22:57.289Z,73.87
2018-11-25T04:25:26.703Z,84.43
2018-11-25T04:27:56.121Z,89.23
2018-11-25T04:30:25.512Z,81.70
2018-11-25T04:32:54.937Z,85.50
2018-11-25T04:35:24.329Z,83.93
2018-11-25T04:37:53.772Z,85.37
2018-11-25T04:40:23.414Z,77.87
2018-11-25T04:42:52.889Z,73.60
2018-11-25T04:45:22.326Z,77.40
2018-11-25T04:47:51.758Z,77.00
2018-11-25T04:50:22.302Z,71.10
2018-11-25T04:52:51.746Z,72.53
2018-11-25T04:55:21.234Z,82.50
2018-11-25T04:57:51.674Z,84.17
2018-11-25T05:00:21.309Z,93.67
2018-11-25T05:02:51.793Z,67.97
2018-11-25T05:05:21.357Z,80.53
2018-11-25T05:07:50.783Z,79.50
2018-11-25T05:10:20.217Z,83.37
2018-11-25T05:12:49.613Z,78.60
2018-11-25T05:15:21.595Z,82.97
2018-11-25T05:17:51.527Z,78.50
2018-11-25T05:20:21.523Z,72.10
2018-11-25T05:22:50.989Z,79.23
2018-11-25T05:25:20.951Z,81.40
2018-11-25T05:27:50.377Z,73.83
2018-11-25T05:30:21.098Z,88.33
2018-11-25T05:32:50.542Z,76.97
2018-11-25T05:35:21.545Z,77.67
2018-11-25T05:37:51.234Z,69.63
2018-11-25T05:40:20.669Z,80.77
2018-11-25T05:42:50.081Z,77.90
2018-11-25T05:45:20.565Z,77.13
2018-11-25T05:47:49.998Z,82.27
2018-11-25T05:50:20.102Z,69.30
2018-11-25T05:52:49.557Z,74.67
2018-11-25T05:55:18.979Z,79.73
2018-11-25T05:57:48.420Z,82.87
2018-11-25T06:00:38.326Z,67.60
2018-11-25T06:03:07.876Z,77.27
2018-11-25T06:05:37.282Z,81.53
2018-11-25T06:08:07.033Z,72.17
2018-11-25T06:10:36.416Z,76.57
2018-11-25T06:13:06.002Z,73.87
2018-11-25T06:15:35.414Z,80.43
2018-11-25T06:18:04.829Z,80.70
2018-11-25T06:20:34.237Z,84.13
2018-11-25T06:23:04.077Z,79.67
2018-11-25T06:25:33.481Z,83.50
2018-11-25T06:28:02.942Z,77.33
2018-11-25T06:30:32.688Z,86.83
2018-11-25T06:33:02.233Z,82.60
2018-11-25T06:35:31.755Z,85.23
2018-11-25T06:38:01.306Z,83.23
2018-11-25T06:40:30.701Z,93.67
2018-11-25T06:43:00.134Z,87.43
2018-11-25T06:45:31.470Z,84.83
2018-11-25T06:48:00.870Z,87.90
2018-11-25T06:50:30.321Z,91.77
2018-11-25T06:52:59.808Z,80.13
2018-11-25T06:55:29.209Z,89.73
2018-11-25T06:57:58.610Z,89.13
2018-11-25T07:00:28.074Z,97.50
2018-11-25T07:02:57.474Z,76.60
2018-11-25T07:05:26.875Z,81.60
2018-11-25T07:07:56.307Z,79.17
2018-11-25T07:10:25.697Z,81.77
2018-11-25T07:13:13.360Z,83.47
2018-11-25T07:15:42.737Z,91.43
2018-11-25T07:18:12.137Z,87.30
2018-11-25T07:20:41.609Z,78.73
2018-11-25T07:23:11.006Z,84.87
2018-11-25T07:25:40.442Z,90.70
2018-11-25T07:28:18.485Z,93.07
2018-11-25T07:30:39.389Z,96.67
2018-11-25T07:33:08.900Z,85.43
2018-11-25T07:35:38.446Z,103.33
2018-11-25T07:38:07.846Z,87.83
2018-11-25T07:40:37.313Z,84.97
2018-11-25T07:43:07.237Z,89.67
2018-11-25T07:45:36.605Z,88.77
2018-11-25T07:48:06.376Z,85.87
2018-11-25T07:50:35.994Z,92.87
2018-11-25T07:53:05.507Z,86.20
2018-11-25T07:55:34.881Z,95.30
2018-11-25T07:58:04.302Z,82.23
2018-11-25T08:00:33.733Z,82.07
2018-11-25T08:03:03.176Z,83.53
2018-11-25T08:05:32.830Z,88.10
2018-11-25T08:08:02.231Z,83.40
2018-11-25T08:10:31.628Z,81.57
2018-11-25T08:13:01.116Z,83.97
2018-11-25T08:15:30.513Z,86.87
2018-11-25T08:17:59.976Z,81.80
2018-11-25T08:20:29.430Z,81.23
2018-11-25T08:22:58.915Z,80.53
2018-11-25T08:25:28.319Z,84.43
2018-11-25T08:27:57.852Z,81.43
2018-11-25T08:30:27.259Z,75.77
2018-11-25T08:32:56.732Z,79.53
2018-11-25T08:35:26.282Z,75.57
2018-11-25T08:37:55.727Z,78.57
2018-11-25T08:40:26.028Z,69.20
2018-11-25T08:42:55.428Z,86.93
2018-11-25T08:45:24.865Z,77.20
2018-11-25T08:47:54.260Z,77.13
2018-11-25T08:50:23.701Z,77.37
2018-11-25T08:52:53.816Z,79.07
2018-11-25T08:55:26.216Z,72.30
2018-11-25T08:57:56.073Z,73.50
2018-11-25T09:00:27.151Z,67.93
2018-11-25T09:02:57.360Z,77.27
2018-11-25T09:05:26.938Z,76.73
2018-11-25T09:07:56.353Z,83.23
2018-11-25T09:10:25.797Z,76.60
2018-11-25T09:12:57.738Z,81.37
2018-11-25T09:15:29.163Z,95.03
2018-11-25T09:17:58.800Z,84.23
2018-11-25T09:20:28.241Z,81.77
2018-11-25T09:22:57.930Z,82.63
2018-11-25T09:25:30.337Z,82.90
2018-11-25T09:28:01.513Z,89.17
2018-11-25T09:30:32.456Z,86.57
2018-11-25T09:33:02.102Z,86.40
2018-11-25T09:35:31.547Z,90.87
2018-11-25T09:38:00.949Z,98.20
2018-11-25T09:40:30.547Z,127.63
2018-11-25T09:43:00.642Z,96.67
2018-11-25T09:45:30.069Z,98.10
2018-11-25T09:48:01.070Z,95.63
2018-11-25T09:50:30.526Z,100.57
2018-11-25T09:52:59.934Z,103.17
2018-11-25T09:55:29.336Z,94.10
2018-11-25T09:58:01.226Z,102.83
2018-11-25T10:00:35.245Z,106.83
2018-11-25T10:03:06.621Z,103.93
2018-11-25T10:05:36.080Z,105.83
2018-11-25T10:08:05.502Z,98.87
2018-11-25T10:10:34.993Z,105.23
2018-11-25T10:13:04.501Z,103.70
2018-11-25T10:15:33.894Z,95.70
2018-11-25T10:18:03.287Z,94.43
2018-11-25T10:20:33.502Z,89.10
2018-11-25T10:23:02.895Z,84.67
2018-11-25T10:25:32.316Z,89.20
2018-11-25T10:28:01.865Z,89.23
2018-11-25T10:30:31.864Z,86.83
2018-11-25T10:33:04.416Z,90.43
2018-11-25T10:35:33.905Z,93.20
2018-11-25T10:38:03.373Z,82.23
2018-11-25T10:40:32.781Z,92.20
2018-11-25T10:43:02.178Z,89.30
2018-11-25T10:45:31.618Z,80.77
2018-11-25T10:48:01.175Z,84.60
2018-11-25T10:50:30.566Z,79.63
2018-11-25T10:52:59.995Z,83.37
2018-11-25T10:55:29.574Z,92.67
2018-11-25T10:57:58.961Z,78.67
2018-11-25T11:00:36.230Z,72.27
2018-11-25T11:03:12.935Z,74.47
2018-11-25T11:05:47.433Z,71.80
2018-11-25T11:08:16.965Z,76.80
2018-11-25T11:10:46.371Z,74.17
2018-11-25T11:13:15.767Z,73.63
2018-11-25T11:15:45.295Z,77.47
2018-11-25T11:18:14.776Z,76.33
2018-11-25T11:20:44.206Z,84.20
2018-11-25T11:23:13.687Z,75.07
2018-11-25T11:25:43.088Z,88.57
2018-11-25T11:28:12.453Z,77.17
2018-11-25T11:30:41.851Z,91.00
2018-11-25T11:33:11.227Z,82.53
2018-11-25T11:35:40.832Z,84.13
2018-11-25T11:38:10.244Z,80.13
2018-11-25T11:40:39.705Z,74.03
2018-11-25T11:43:09.069Z,84.70
2018-11-25T11:45:38.475Z,78.37
2018-11-25T11:48:07.962Z,85.50
2018-11-25T11:50:37.360Z,79.70
2018-11-25T11:53:07.777Z,86.87
2018-11-25T11:55:37.181Z,85.13
2018-11-25T11:58:06.785Z,84.07
2018-11-25T12:00:36.195Z,87.43
2018-11-25T12:03:06.098Z,78.20
2018-11-25T12:05:37.457Z,85.73
2018-11-25T12:08:07.529Z,76.37
2018-11-25T12:10:36.929Z,85.03
2018-11-25T12:13:07.370Z,84.53
2018-11-25T12:15:36.766Z,82.37
2018-11-25T12:18:07.529Z,75.70
2018-11-25T12:20:36.958Z,83.60
2018-11-25T12:23:08.104Z,82.80
2018-11-25T12:25:37.572Z,80.80
2018-11-25T12:28:07.816Z,88.67
2018-11-25T12:30:37.295Z,82.13
2018-11-25T12:33:06.942Z,79.67
2018-11-25T12:35:36.350Z,84.53
2018-11-25T12:38:06.620Z,84.87
2018-11-25T12:40:36.025Z,82.23
2018-11-25T12:43:05.729Z,85.40
2018-11-25T12:45:35.138Z,78.43
2018-11-25T12:48:04.562Z,102.27
2018-11-25T12:50:33.942Z,106.73
2018-11-25T12:53:03.351Z,83.77
2018-11-25T12:55:32.857Z,83.77
2018-11-25T12:58:02.311Z,89.90
2018-11-25T13:00:40.706Z,82.60
2018-11-25T13:03:12.006Z,78.93
2018-11-25T13:05:45.917Z,85.83
2018-11-25T13:08:12.654Z,88.97
2018-11-25T13:10:42.290Z,83.97
2018-11-25T13:13:12.576Z,81.10
2018-11-25T13:15:42.002Z,93.13
2018-11-25T13:18:11.617Z,85.43
2018-11-25T13:20:41.106Z,102.00
2018-11-25T13:23:10.506Z,87.73
2018-11-25T13:25:39.943Z,72.37
2018-11-25T13:28:09.456Z,75.63
2018-11-25T13:30:38.866Z,81.13
2018-11-25T13:33:08.758Z,85.57
2018-11-25T13:35:40.004Z,86.30
2018-11-25T13:38:09.602Z,86.20
2018-11-25T13:40:39.005Z,87.10
2018-11-25T13:43:08.679Z,94.53
2018-11-25T13:45:38.121Z,87.60
2018-11-25T13:48:08.267Z,90.50
2018-11-25T13:50:37.746Z,81.03
2018-11-25T13:53:07.757Z,93.77
2018-11-25T13:55:37.137Z,88.67
2018-11-25T13:58:06.961Z,87.73
2018-11-25T14:00:42.409Z,102.23
2018-11-25T14:03:17.737Z,99.73
2018-11-25T14:05:53.066Z,97.53
2018-11-25T14:08:16.507Z,97.83
2018-11-25T14:10:45.918Z,98.17
2018-11-25T14:13:15.483Z,91.53
2018-11-25T14:15:44.976Z,87.60
2018-11-25T14:18:14.376Z,88.07
2018-11-25T14:20:44.239Z,83.03
2018-11-25T14:23:13.695Z,99.40
2018-11-25T14:25:43.069Z,89.57
2018-11-25T14:28:14.757Z,90.43
2018-11-25T14:30:44.264Z,88.03
2018-11-25T14:33:13.664Z,121.17
2018-11-25T14:35:43.076Z,104.83
2018-11-25T14:38:12.479Z,102.90
2018-11-25T14:40:41.980Z,114.17
2018-11-25T14:43:11.622Z,111.40
2018-11-25T14:45:41.296Z,104.00
2018-11-25T14:48:10.682Z,109.27
2018-11-25T14:50:40.245Z,108.93
2018-11-25T14:53:09.694Z,111.40
2018-11-25T14:55:39.094Z,108.30
2018-11-25T14:58:08.502Z,115.63
2018-11-25T15:00:37.868Z,110.40
2018-11-25T15:03:08.545Z,106.20
2018-11-25T15:05:44.106Z,110.90
2018-11-25T15:08:21.149Z,120.30
2018-11-25T15:10:50.570Z,112.57
2018-11-25T15:13:19.970Z,118.30
2018-11-25T15:15:49.800Z,111.07
2018-11-25T15:18:19.347Z,114.23
2018-11-25T15:20:48.801Z,118.00
2018-11-25T15:23:18.206Z,121.27
2018-11-25T15:25:53.515Z,130.47
2018-11-25T15:28:22.907Z,134.77
2018-11-25T15:30:52.355Z,134.43
2018-11-25T15:33:21.776Z,120.83
2018-11-25T15:35:51.168Z,123.77
2018-11-25T15:38:20.664Z,113.17
2018-11-25T15:40:50.099Z,126.50
2018-11-25T15:43:19.471Z,116.60
2018-11-25T15:45:48.863Z,116.90
2018-11-25T15:48:29.065Z,112.37
2018-11-25T15:50:58.538Z,116.07
2018-11-25T15:53:27.939Z,107.17
2018-11-25T15:56:00.343Z,127.37
2018-11-25T15:58:29.828Z,116.90
2018-11-25T16:00:59.264Z,122.43
2018-11-25T16:03:28.761Z,112.20
2018-11-25T16:06:03.453Z,109.90
2018-11-25T16:08:38.045Z,111.07
2018-11-25T16:11:02.290Z,111.43
2018-11-25T16:13:31.762Z,120.17
2018-11-25T16:16:01.225Z,111.80
2018-11-25T16:18:30.825Z,112.70
2018-11-25T16:21:00.287Z,118.63
2018-11-25T16:23:29.729Z,120.27
2018-11-25T16:26:03.184Z,118.07
2018-11-25T16:28:36.910Z,119.40
2018-11-25T16:31:06.898Z,114.23
2018-11-25T16:33:36.439Z,130.83
2018-11-25T16:36:06.274Z,120.77
2018-11-25T16:38:35.796Z,118.40
2018-11-25T16:41:05.990Z,128.10
2018-11-25T16:43:35.608Z,122.10
2018-11-25T16:46:05.077Z,123.00
2018-11-25T16:48:34.505Z,122.33
2018-11-25T16:51:04.002Z,130.30
2018-11-25T16:53:33.394Z,146.60
2018-11-25T16:56:02.779Z,160.47
2018-11-25T16:58:32.200Z,152.23
2018-11-25T17:01:01.791Z,141.53
2018-11-25T17:03:31.078Z,160.33
2018-11-25T17:06:00.664Z,165.87
2018-11-25T17:08:36.635Z,170.57
2018-11-25T17:11:07.104Z,176.17
2018-11-25T17:13:36.664Z,172.47
2018-11-25T17:16:07.425Z,155.07
2018-11-25T17:18:37.489Z,148.77
2018-11-25T17:21:06.898Z,143.77
2018-11-25T17:23:36.473Z,149.87
2018-11-25T17:26:06.062Z,163.03
2018-11-25T17:28:35.471Z,184.50
2018-11-25T17:31:04.981Z,165.37
2018-11-25T17:33:34.420Z,174.60
2018-11-25T17:36:03.829Z,158.63
2018-11-25T17:38:33.260Z,170.10
2018-11-25T17:41:02.686Z,174.40
2018-11-25T17:43:32.194Z,161.77
2018-11-25T17:46:01.705Z,176.00
2018-11-25T17:48:31.179Z,187.10
2018-11-25T17:51:00.572Z,158.93
2018-11-25T17:53:29.990Z,158.70
2018-11-25T17:55:59.451Z,142.83
2018-11-25T17:58:29.067Z,160.80
2018-11-25T18:01:04.749Z,171.47
2018-11-25T18:03:36.282Z,165.33
2018-11-25T18:06:06.071Z,168.90
2018-11-25T18:08:35.482Z,168.20
2018-11-25T18:11:05.158Z,153.80
2018-11-25T18:13:38.003Z,172.83
2018-11-25T18:16:09.981Z,162.10
2018-11-25T18:18:43.166Z,173.70
2018-11-25T18:21:17.324Z,170.33
2018-11-25T18:23:46.810Z,168.27
2018-11-25T18:26:16.337Z,141.37
2018-11-25T18:28:45.801Z,169.93
2018-11-25T18:31:15.253Z,166.37
2018-11-25T18:33:44.726Z,147.93
2018-11-25T18:36:15.173Z,138.50
2018-11-25T18:38:44.938Z,167.27
2018-11-25T18:41:14.351Z,139.23
2018-11-25T18:43:43.755Z,147.77
2018-11-25T18:46:13.318Z,149.73
2018-11-25T18:48:45.969Z,168.10
2018-11-25T18:51:15.479Z,168.60
2018-11-25T18:53:44.863Z,156.83
2018-11-25T18:56:14.272Z,153.40
2018-11-25T18:58:43.809Z,149.37
2018-11-25T19:01:24.314Z,149.80
2018-11-25T19:03:53.781Z,147.07
2018-11-25T19:06:23.233Z,137.70
2018-11-25T19:08:52.751Z,156.37
2018-11-25T19:11:22.181Z,161.77
2018-11-25T19:13:51.803Z,136.17
2018-11-25T19:16:21.229Z,141.43
2018-11-25T19:18:50.874Z,144.53
2018-11-25T19:21:20.258Z,142.70
2018-11-25T19:23:49.681Z,143.83
2018-11-25T19:26:19.116Z,146.03
2018-11-25T19:28:48.585Z,136.03
2018-11-25T19:31:17.986Z,128.73
2018-11-25T19:33:47.412Z,128.93
2018-11-25T19:36:16.893Z,145.70
2018-11-25T19:38:46.297Z,140.10
2018-11-25T19:41:15.696Z,144.57
2018-11-25T19:43:45.098Z,128.63
2018-11-25T19:46:14.495Z,122.27
2018-11-25T19:48:43.905Z,132.03
2018-11-25T19:51:17.568Z,138.07
2018-11-25T19:53:42.729Z,124.33
2018-11-25T19:56:12.207Z,123.00
2018-11-25T19:58:41.625Z,131.33
2018-11-25T20:01:11.023Z,129.60
2018-11-25T20:03:40.420Z,111.67
2018-11-25T20:06:09.820Z,114.23
2018-11-25T20:08:39.291Z,112.87
2018-11-25T20:11:08.729Z,119.40
2018-11-25T20:13:38.155Z,113.33
2018-11-25T20:16:12.744Z,114.13
2018-11-25T20:18:42.480Z,106.33
2018-11-25T20:21:16.672Z,97.80
2018-11-25T20:23:46.087Z,85.17
2018-11-25T20:26:15.498Z,87.33
2018-11-25T20:28:44.893Z,83.70
2018-11-25T20:31:14.286Z,93.33
2018-11-25T20:33:52.327Z,87.97
2018-11-25T20:36:18.498Z,94.53
2018-11-25T20:38:53.161Z,91.30
2018-11-25T20:41:22.583Z,90.47
2018-11-25T20:43:52.057Z,92.17
2018-11-25T20:46:26.666Z,83.50
2018-11-25T20:48:56.052Z,83.13
2018-11-25T20:51:30.970Z,82.67
2018-11-25T20:54:01.014Z,79.70
2018-11-25T20:56:30.418Z,94.57
2018-11-25T20:58:59.993Z,91.20
2018-11-25T21:01:29.477Z,74.63
2018-11-25T21:03:58.847Z,70.43
2018-11-25T21:06:28.514Z,73.57
2018-11-25T21:08:57.991Z,68.00
2018-11-25T21:11:27.381Z,74.53
2018-11-25T21:13:56.802Z,78.93
2018-11-25T21:16:26.315Z,77.03
2018-11-25T21:18:55.720Z,70.40
2018-11-25T21:21:25.134Z,69.80
2018-11-25T21:23:54.809Z,75.23
2018-11-25T21:26:24.217Z,72.87
2018-11-25T21:28:53.805Z,81.23
2018-11-25T21:31:23.212Z,79.23
2018-11-25T21:33:52.618Z,81.40
2018-11-25T21:36:22.176Z,84.20
2018-11-25T21:38:51.558Z,79.17
2018-11-25T21:41:20.952Z,71.73
2018-11-25T21:43:50.377Z,74.00
2018-11-25T21:46:19.758Z,80.73
2018-11-25T21:48:49.173Z,74.27
2018-11-25T21:51:18.690Z,69.37
2018-11-25T21:53:48.101Z,81.60
2018-11-25T21:56:17.622Z,78.77
2018-11-25T21:58:47.120Z,76.73
2018-11-25T22:01:16.546Z,71.73
2018-11-25T22:03:45.957Z,74.80
2018-11-25T22:06:15.408Z,70.83
2018-11-25T22:08:44.853Z,76.27
2018-11-25T22:11:14.241Z,70.77
2018-11-25T22:13:43.737Z,69.33
2018-11-25T22:16:13.193Z,69.43
2018-11-25T22:18:42.595Z,72.20
2018-11-25T22:21:12.152Z,70.90
2018-11-25T22:23:41.590Z,63.23
2018-11-25T22:26:10.990Z,71.70
2018-11-25T22:28:40.442Z,69.83
2018-11-25T22:31:09.840Z,74.10
2018-11-25T22:33:39.234Z,65.80
2018-11-25T22:36:08.773Z,70.50
2018-11-25T22:38:38.196Z,75.83
2018-11-25T22:41:07.594Z,67.90
2018-11-25T22:43:37.174Z,67.03
2018-11-25T22:46:07.033Z,69.63
2018-11-25T22:48:36.468Z,63.30
2018-11-25T22:51:06.218Z,63.80
2018-11-25T22:55:04.707Z,61.73
2018-11-25T22:57:34.301Z,67.97
2018-11-25T23:00:03.822Z,68.53
2018-11-25T23:02:33.311Z,68.90
2018-11-25T23:06:18.498Z,66.40
2018-11-25T23:08:47.980Z,61.60
2018-11-25T23:11:17.479Z,64.73
2018-11-25T23:13:46.928Z,62.03
2018-11-25T23:16:16.347Z,53.80
2018-11-25T23:18:45.785Z,62.27
2018-11-25T23:21:15.237Z,59.50
2018-11-25T23:23:44.787Z,65.93
2018-11-25T23:26:14.440Z,59.53
2018-11-25T23:28:43.879Z,55.30
2018-11-25T23:31:13.301Z,59.90
2018-11-25T23:33:42.969Z,62.07
2018-11-25T23:36:12.398Z,67.77
2018-11-25T23:38:41.818Z,65.83
2018-11-25T23:41:11.365Z,58.27
2018-11-25T23:43:40.793Z,66.27
2018-11-25T23:46:10.236Z,64.63
2018-11-25T23:48:39.892Z,54.90
2018-11-25T23:51:09.370Z,50.80
2018-11-25T23:53:38.905Z,54.47
2018-11-25T23:56:08.517Z,57.53
2018-11-25T23:58:37.962Z,56.97
